Otter Rock, OR (97369)

6:01 AM PST on February 13, 2016 (GMT -0800)
Sea Crest | | Change Station
CLOSE
Current Station
Personal Weather Station
Location: Otter Rock, OR
Elevation: 112 ft
Nearby Weather Stations

Elev 112 ft 44.76 °N, 124.06 °W | Updated 0 second ago

Overcast
Overcast
53.1 °F
Feels Like 53.1 °F
N
2.0
Wind Variable Wind from South
Gusts 4.3 mph

Today
High -- | Low -- °F
--% Chance of Precip.
Yesterday
High -- | Low -- °F
Precip. -- in
Pressure 30.38 in
Visibility 7.0 miles
Clouds Scattered Clouds 900 ft
Scattered Clouds 1700 ft
Mostly Cloudy 4000 ft
Dew Point 54 °F
Humidity 98%
Rainfall 0.00 in
Snow Depth Not available.
7:20 AM 5:41 PM
Waxing Crescent, 31% visible
METAR KONP 131355Z AUTO 16007KT 7SM SCT009 SCT017 BKN040 09/08 A3038 RMK AO2
Pressure 30.38 in
Visibility 7.0 miles
Clouds Scattered Clouds 900 ft
Scattered Clouds 1700 ft
Mostly Cloudy 4000 ft
Dew Point 54 °F
Humidity 98%
Rainfall 0.00 in
Snow Depth Not available.
7:20 AM 5:41 PM
Waxing Crescent, 31% visible
METAR KONP 131355Z AUTO 16007KT 7SM SCT009 SCT017 BKN040 09/08 A3038 RMK AO2

10-Day Weather Forecast

Almanac

Astronomy

Feb. 13, 2016 Rise Set
Actual Time
Civil Twilight
Nautical Twilight
Astronomical Twilight
Moon
Length of Visible Light
Length of Day
Tomorrow will be .
, % of the Moon is Illuminated

Today's Extremes

State Highs State Lows

Community

WunderPhotos

Upload Photos

1,892,556 photos uploaded!

WunderBlog® & News

Nearby

Air Quality

  Air Quality AQ Index Pollutant
Not available.

Snow Depth

Station Depth Elevation

Earthquake Activity

City Distance Mag. Time & Date
Minimum magnitude displayed is 2.5.

Coastal Water Temperatures

Place Temperature

Stations

Nearby Weather Stations

Station Location Temp. Windchill Dew Point Humidity Wind Precip. Elev Updated Type
                   

Watches & Warnings

There are currently no watches in effect.